Time;durP1;ratioP1;P1;durP2;ratioP2;P2;SDS_P1;SDS_P2;PMS_P1;PMS_P2;Temp;Humidity;BMP_temperature;BMP_pressure;BME280_temperature;BME280_humidity;BME280_pressure;Samples;Min_cycle;Max_cycle;Signal;HPM_P1;HPM_P2
2023/05/28 00:00:10;;;;;;;13.82;5.93;;;14.50;62.60;;;;;;5093126;28;20032;-64
2023/05/28 00:02:37;;;;;;;14.10;5.72;;;14.50;63.20;;;;;;5125949;27;20131;-65
2023/05/28 00:05:04;;;;;;;15.73;5.97;;;14.40;63.50;;;;;;5125878;27;20139;-65
2023/05/28 00:07:30;;;;;;;14.80;5.90;;;14.30;63.90;;;;;;5125982;27;20051;-65
2023/05/28 00:09:56;;;;;;;15.27;6.68;;;14.20;64.20;;;;;;5124377;27;20111;-65
2023/05/28 00:12:23;;;;;;;13.10;6.10;;;14.10;64.60;;;;;;5126124;27;20040;-65
2023/05/28 00:14:49;;;;;;;12.70;5.70;;;14.00;64.90;;;;;;5125681;27;20522;-64
2023/05/28 00:17:15;;;;;;;14.32;5.45;;;13.90;65.20;;;;;;5125972;27;20036;-65
2023/05/28 00:19:41;;;;;;;13.02;5.72;;;13.80;65.40;;;;;;5125631;28;20056;-65
2023/05/28 00:22:07;;;;;;;16.08;5.28;;;13.80;65.60;;;;;;5074703;28;20052;-64
2023/05/28 00:24:33;;;;;;;12.52;5.50;;;13.80;65.80;;;;;;5074553;28;20051;-65
2023/05/28 00:26:59;;;;;;;9.77;4.90;;;13.70;65.80;;;;;;5091749;28;20509;-66
2023/05/28 00:29:26;;;;;;;11.57;5.15;;;13.70;65.90;;;;;;5091511;28;20036;-64
2023/05/28 00:31:56;;;;;;;10.13;4.75;;;13.70;66.00;;;;;;5091452;28;20055;-65
2023/05/28 00:34:26;;;;;;;9.57;4.85;;;13.70;66.10;;;;;;5091459;28;20048;-64
2023/05/28 00:36:53;;;;;;;13.50;5.68;;;13.60;66.10;;;;;;5091633;28;20120;-65
2023/05/28 00:39:19;;;;;;;13.85;5.35;;;13.60;66.10;;;;;;5091353;28;21659;-65
2023/05/28 00:41:45;;;;;;;12.45;5.78;;;13.60;66.30;;;;;;5091698;28;20052;-64
2023/05/28 00:44:11;;;;;;;12.63;5.40;;;13.60;66.40;;;;;;5091137;28;20403;-65
2023/05/28 00:46:40;;;;;;;15.10;6.07;;;13.60;66.40;;;;;;5057901;28;20127;-64
2023/05/28 00:49:06;;;;;;;17.23;5.57;;;13.60;66.50;;;;;;5074758;28;20040;-64
2023/05/28 00:51:33;;;;;;;12.55;6.05;;;13.60;66.50;;;;;;5091348;28;20054;-65
2023/05/28 00:53:59;;;;;;;14.88;5.75;;;13.60;66.60;;;;;;5091338;28;20082;-65
2023/05/28 00:56:26;;;;;;;10.40;5.32;;;13.60;66.60;;;;;;5074087;28;20063;-65
2023/05/28 00:58:52;;;;;;;11.23;4.80;;;13.60;66.60;;;;;;5074495;28;20115;-65
2023/05/28 01:01:18;;;;;;;9.23;5.10;;;13.50;66.60;;;;;;5125201;28;20052;-65
2023/05/28 01:03:44;;;;;;;12.02;5.22;;;13.60;66.60;;;;;;5073956;28;20047;-65
2023/05/28 01:06:13;;;;;;;10.00;4.35;;;13.50;66.60;;;;;;5091030;28;20040;-65
2023/05/28 01:08:40;;;;;;;9.48;5.03;;;13.50;66.60;;;;;;5091103;28;20066;-65
2023/05/28 01:11:13;;;;;;;15.05;5.75;;;13.60;66.70;;;;;;5092518;28;20048;-65
2023/05/28 01:13:40;;;;;;;11.80;5.40;;;13.60;66.90;;;;;;5094711;28;20048;-65
2023/05/28 01:16:06;;;;;;;14.30;6.38;;;13.50;66.70;;;;;;5129012;27;20115;-65
2023/05/28 01:18:32;;;;;;;13.00;5.88;;;13.50;66.90;;;;;;5077906;28;20130;-65
2023/05/28 01:21:02;;;;;;;12.48;4.43;;;13.50;67.20;;;;;;5129066;27;20051;-65
2023/05/28 01:23:29;;;;;;;12.45;5.63;;;13.50;67.40;;;;;;5128997;27;20123;-65
2023/05/28 01:25:59;;;;;;;14.63;5.25;;;13.50;67.60;;;;;;5077722;28;20093;-65
2023/05/28 01:28:25;;;;;;;12.45;5.47;;;13.40;67.80;;;;;;5129142;27;20047;-65
2023/05/28 01:30:52;;;;;;;11.15;5.78;;;13.40;67.90;;;;;;5127050;27;20096;-65
2023/05/28 01:33:21;;;;;;;14.27;6.43;;;13.40;68.10;;;;;;5128716;27;20048;-65
2023/05/28 01:35:47;;;;;;;10.18;5.45;;;13.40;68.40;;;;;;5077627;28;20502;-65
2023/05/28 01:38:15;;;;;;;12.40;5.20;;;13.40;68.60;;;;;;5128601;27;20044;-65
2023/05/28 01:40:46;;;;;;;15.25;6.05;;;13.30;68.50;;;;;;5128846;27;20040;-65
2023/05/28 01:43:12;;;;;;;13.05;5.20;;;13.40;68.70;;;;;;5128424;27;20047;-65
2023/05/28 01:45:39;;;;;;;9.90;5.13;;;13.30;68.60;;;;;;5127969;27;20081;-65
2023/05/28 01:48:06;;;;;;;10.93;6.20;;;13.30;68.70;;;;;;5128366;27;20040;-65
2023/05/28 01:50:32;;;;;;;13.23;4.90;;;13.30;68.80;;;;;;5077348;28;20120;-65
2023/05/28 01:52:59;;;;;;;15.73;5.88;;;13.30;68.80;;;;;;5128275;27;20055;-65
2023/05/28 01:55:25;;;;;;;12.18;5.38;;;13.30;68.90;;;;;;5077084;28;20071;-65
2023/05/28 01:57:51;;;;;;;13.88;5.25;;;13.30;68.90;;;;;;5128110;27;20560;-65
2023/05/28 02:00:17;;;;;;;12.65;5.97;;;13.30;68.90;;;;;;5122302;27;20032;-65
2023/05/28 02:02:43;;;;;;;12.35;5.30;;;13.30;68.90;;;;;;5090734;28;20033;-69
2023/05/28 02:05:09;;;;;;;9.88;5.43;;;13.30;68.90;;;;;;5073418;28;20507;-69
2023/05/28 02:07:35;;;;;;;15.43;5.05;;;13.30;68.90;;;;;;5074961;28;20037;-69
2023/05/28 02:10:01;;;;;;;11.48;5.35;;;13.30;68.90;;;;;;5073638;28;20484;-69
2023/05/28 02:12:28;;;;;;;9.57;4.93;;;13.30;68.90;;;;;;5073698;28;20119;-69
2023/05/28 02:14:53;;;;;;;12.07;5.50;;;13.30;68.90;;;;;;5074873;28;20040;-70
2023/05/28 02:17:20;;;;;;;13.45;5.25;;;13.30;68.70;;;;;;5082259;28;20036;-70
2023/05/28 02:19:46;;;;;;;11.30;5.43;;;13.30;68.60;;;;;;5093493;28;20495;-69
2023/05/28 02:22:11;;;;;;;14.27;6.13;;;13.30;68.60;;;;;;5092412;28;20051;-70
2023/05/28 02:24:41;;;;;;;15.80;5.35;;;13.30;68.60;;;;;;5093498;28;20043;-69
2023/05/28 02:27:07;;;;;;;18.45;6.40;;;13.30;68.70;;;;;;5093466;28;20080;-69
2023/05/28 02:29:33;;;;;;;12.70;5.45;;;13.30;68.60;;;;;;5093587;28;20079;-69
2023/05/28 02:32:01;;;;;;;13.23;5.65;;;13.30;68.50;;;;;;5093420;28;20044;-69
2023/05/28 02:34:28;;;;;;;12.35;5.55;;;13.30;68.70;;;;;;5093064;28;20150;-69
2023/05/28 02:36:55;;;;;;;14.68;5.68;;;13.30;68.70;;;;;;5093423;28;20562;-69
2023/05/28 02:39:24;;;;;;;12.82;6.32;;;13.30;68.70;;;;;;5093193;28;20044;-69
2023/05/28 02:41:50;;;;;;;15.10;6.18;;;13.30;68.70;;;;;;5093087;28;20040;-69
2023/05/28 02:44:15;;;;;;;13.55;5.65;;;13.20;68.70;;;;;;5092831;28;20044;-65
2023/05/28 02:46:42;;;;;;;16.13;6.07;;;13.20;68.80;;;;;;5093061;28;20491;-65
2023/05/28 02:49:08;;;;;;;14.50;5.78;;;13.20;68.80;;;;;;5093206;28;20101;-65
2023/05/28 02:51:34;;;;;;;13.15;6.18;;;13.20;68.90;;;;;;5092867;28;20487;-65
2023/05/28 02:54:00;;;;;;;17.23;6.07;;;13.10;69.00;;;;;;5093160;28;20103;-65
2023/05/28 02:56:26;;;;;;;14.93;5.18;;;13.20;69.20;;;;;;5075977;28;20445;-65
2023/05/28 02:58:52;;;;;;;15.35;5.82;;;13.10;69.10;;;;;;5092887;28;20070;-65
2023/05/28 03:01:18;;;;;;;9.75;5.05;;;13.10;69.30;;;;;;5092790;28;20047;-65
2023/05/28 03:03:44;;;;;;;10.65;5.68;;;13.10;69.40;;;;;;5094024;28;20089;-65
2023/05/28 03:06:10;;;;;;;10.85;5.38;;;13.10;69.40;;;;;;5092595;28;20051;-65
2023/05/28 03:08:36;;;;;;;14.38;6.20;;;13.10;69.40;;;;;;5059370;28;20047;-69
2023/05/28 03:11:02;;;;;;;12.55;5.65;;;13.10;69.50;;;;;;5092835;28;20391;-69
2023/05/28 03:13:27;;;;;;;11.27;5.38;;;13.10;69.60;;;;;;5092467;28;20479;-69
2023/05/28 03:15:53;;;;;;;11.82;5.30;;;13.00;69.50;;;;;;5093828;28;20040;-69
2023/05/28 03:18:19;;;;;;;12.75;5.22;;;13.00;69.50;;;;;;5075652;28;20036;-69
2023/05/28 03:20:44;;;;;;;10.48;5.05;;;13.00;69.50;;;;;;5092717;28;20044;-69
2023/05/28 03:23:10;;;;;;;13.18;6.18;;;13.00;69.40;;;;;;5092206;28;20394;-69
2023/05/28 03:25:36;;;;;;;8.80;5.22;;;13.00;69.40;;;;;;5126443;27;20048;-69
2023/05/28 03:28:02;;;;;;;16.23;6.68;;;13.00;69.40;;;;;;5126889;27;20039;-69
2023/05/28 03:30:27;;;;;;;11.48;5.07;;;13.00;69.30;;;;;;5075574;28;20046;-69
2023/05/28 03:32:53;;;;;;;13.73;6.05;;;13.00;69.30;;;;;;5126333;27;20118;-69
2023/05/28 03:35:19;;;;;;;13.73;5.55;;;13.00;69.20;;;;;;5126168;27;20075;-69
2023/05/28 03:37:45;;;;;;;9.68;5.68;;;13.00;69.10;;;;;;5126393;27;20036;-69
2023/05/28 03:40:11;;;;;;;13.57;5.43;;;13.00;69.10;;;;;;5118976;27;20070;-69
2023/05/28 03:42:38;;;;;;;11.23;5.00;;;13.00;69.00;;;;;;5071733;28;20047;-69
2023/05/28 03:45:05;;;;;;;12.57;5.30;;;13.00;68.90;;;;;;5071713;28;20055;-69
2023/05/28 03:47:32;;;;;;;11.05;5.70;;;13.00;68.80;;;;;;5073104;28;20040;-69
2023/05/28 03:49:58;;;;;;;11.27;5.25;;;13.00;68.80;;;;;;5071508;28;20044;-69
2023/05/28 03:52:25;;;;;;;11.50;5.00;;;13.00;68.80;;;;;;5088387;28;20074;-69
2023/05/28 03:54:51;;;;;;;11.15;4.70;;;13.00;68.80;;;;;;5071665;28;20040;-69
2023/05/28 03:57:17;;;;;;;10.50;5.65;;;13.00;68.90;;;;;;5090994;28;20431;-69
2023/05/28 03:59:42;;;;;;;13.82;5.85;;;13.00;69.00;;;;;;5071695;28;20080;-69
2023/05/28 04:02:08;;;;;;;14.13;4.97;;;13.00;69.00;;;;;;5071702;28;20419;-69
2023/05/28 04:04:34;;;;;;;10.73;5.25;;;13.00;68.90;;;;;;5071453;28;20105;-69
2023/05/28 04:07:00;;;;;;;11.50;5.47;;;13.00;69.00;;;;;;5088298;28;20036;-69
2023/05/28 04:09:27;;;;;;;11.63;5.47;;;12.90;69.00;;;;;;5071799;28;20396;-69
2023/05/28 04:11:53;;;;;;;13.05;4.90;;;12.90;69.00;;;;;;5071807;28;20066;-69
2023/05/28 04:14:19;;;;;;;15.13;6.18;;;12.90;69.10;;;;;;5089506;28;20044;-69
2023/05/28 04:16:44;;;;;;;10.90;5.85;;;12.90;69.20;;;;;;5088417;28;20047;-69
2023/05/28 04:19:10;;;;;;;12.63;6.00;;;12.90;69.30;;;;;;5071353;28;20055;-71
2023/05/28 04:21:36;;;;;;;12.27;5.80;;;12.90;69.30;;;;;;5071291;28;20047;-69
2023/05/28 04:24:03;;;;;;;13.65;5.45;;;12.90;69.40;;;;;;5071368;28;20123;-69
2023/05/28 04:26:29;;;;;;;9.85;5.20;;;12.90;69.50;;;;;;5071603;28;20496;-69
2023/05/28 04:28:55;;;;;;;16.92;6.15;;;12.90;69.60;;;;;;5085977;28;20097;-69
2023/05/28 04:31:21;;;;;;;13.18;6.20;;;12.90;69.80;;;;;;5125663;28;20044;-69
2023/05/28 04:33:46;;;;;;;14.20;6.10;;;12.90;69.80;;;;;;5125594;28;20095;-69
2023/05/28 04:36:15;;;;;;;13.95;6.38;;;12.90;69.90;;;;;;5125542;28;20076;-69
2023/05/28 04:38:41;;;;;;;13.30;5.82;;;12.90;69.90;;;;;;5125572;28;20625;-69
2023/05/28 04:41:07;;;;;;;14.88;6.25;;;12.90;70.00;;;;;;5108137;28;20052;-69
2023/05/28 04:43:33;;;;;;;12.13;6.57;;;12.90;70.10;;;;;;5074500;28;20101;-69
2023/05/28 04:46:01;;;;;;;10.90;5.10;;;12.90;70.10;;;;;;5125009;27;20048;-69
2023/05/28 04:48:27;;;;;;;12.38;5.93;;;12.90;70.30;;;;;;5129874;27;20040;-69
2023/05/28 04:50:53;;;;;;;12.82;6.10;;;12.90;70.40;;;;;;5129757;27;20506;-69
2023/05/28 04:53:19;;;;;;;13.57;5.70;;;12.80;70.50;;;;;;5129681;27;20048;-69
2023/05/28 04:55:45;;;;;;;19.48;6.47;;;12.90;70.70;;;;;;5095392;28;20051;-69
2023/05/28 04:58:10;;;;;;;11.25;5.70;;;12.90;71.00;;;;;;5129782;27;20071;-69
2023/05/28 05:00:36;;;;;;;15.05;6.38;;;12.90;71.30;;;;;;5124812;27;20495;-69
2023/05/28 05:03:03;;;;;;;12.70;5.93;;;12.90;71.60;;;;;;5083430;28;20036;-69
2023/05/28 05:05:29;;;;;;;16.10;7.40;;;13.00;72.20;;;;;;5096699;28;20032;-69
2023/05/28 05:07:55;;;;;;;12.63;6.43;;;13.00;73.00;;;;;;5061599;28;20036;-69
2023/05/28 05:10:20;;;;;;;13.07;6.45;;;13.10;73.70;;;;;;5095182;28;20071;-69
2023/05/28 05:12:46;;;;;;;13.10;5.65;;;13.20;74.00;;;;;;5078190;28;20047;-70
2023/05/28 05:15:12;;;;;;;16.13;5.55;;;13.30;74.10;;;;;;5077905;28;20399;-69
2023/05/28 05:17:37;;;;;;;11.45;5.18;;;13.50;73.90;;;;;;5129096;27;20052;-69
2023/05/28 05:20:07;;;;;;;11.65;5.97;;;13.60;73.70;;;;;;5129109;27;20078;-69
2023/05/28 05:22:32;;;;;;;12.98;6.35;;;13.70;73.50;;;;;;5094955;28;20055;-69
2023/05/28 05:24:58;;;;;;;14.93;5.78;;;13.80;73.40;;;;;;5111774;27;20487;-69
2023/05/28 05:27:24;;;;;;;14.65;5.95;;;14.00;73.30;;;;;;5128725;27;20036;-69
2023/05/28 05:29:50;;;;;;;13.25;5.78;;;14.20;73.00;;;;;;5129046;27;20094;-69
2023/05/28 05:32:16;;;;;;;13.73;6.07;;;14.40;72.70;;;;;;5126966;27;20472;-70
2023/05/28 05:34:41;;;;;;;14.15;5.50;;;14.60;72.20;;;;;;5128817;27;20079;-69
2023/05/28 05:37:07;;;;;;;16.35;6.43;;;14.80;71.70;;;;;;5128654;27;20062;-70
2023/05/28 05:39:33;;;;;;;16.00;5.72;;;15.00;71.10;;;;;;5077660;28;20407;-70
2023/05/28 05:41:59;;;;;;;14.00;6.07;;;15.30;70.60;;;;;;5128562;27;20080;-70
2023/05/28 05:44:25;;;;;;;12.00;5.63;;;15.30;70.10;;;;;;5128331;27;20063;-70
2023/05/28 05:46:50;;;;;;;12.13;4.93;;;15.50;69.90;;;;;;5094238;28;20563;-70
2023/05/28 05:49:16;;;;;;;13.57;5.10;;;15.60;69.60;;;;;;5126951;27;20090;-70
2023/05/28 05:51:42;;;;;;;15.88;5.88;;;15.80;69.00;;;;;;5128419;27;20479;-69
2023/05/28 05:54:07;;;;;;;13.88;5.35;;;15.90;68.10;;;;;;5128509;27;20047;-69
2023/05/28 05:56:34;;;;;;;14.20;5.32;;;16.00;67.80;;;;;;5128019;27;20046;-69
2023/05/28 05:59:00;;;;;;;11.80;5.18;;;16.20;67.40;;;;;;5128370;27;20081;-71
2023/05/28 06:01:26;;;;;;;12.52;5.68;;;16.30;67.10;;;;;;5077476;28;20130;-70
2023/05/28 06:03:52;;;;;;;12.07;5.55;;;16.40;67.10;;;;;;5128073;27;20483;-69
2023/05/28 06:06:17;;;;;;;9.90;4.65;;;16.50;66.40;;;;;;5111900;27;20044;-69
2023/05/28 06:08:43;;;;;;;11.45;5.22;;;16.60;65.70;;;;;;5073899;28;20414;-70
2023/05/28 06:11:09;;;;;;;9.75;5.10;;;16.60;64.80;;;;;;5073718;28;20388;-70
2023/05/28 06:13:36;;;;;;;11.55;5.00;;;16.60;64.20;;;;;;5073499;28;20040;-69
2023/05/28 06:16:06;;;;;;;12.40;5.00;;;16.70;64.20;;;;;;5107663;28;20123;-69
2023/05/28 06:18:32;;;;;;;12.52;5.05;;;16.70;63.50;;;;;;5073334;28;20047;-69
2023/05/28 06:20:58;;;;;;;10.88;4.55;;;16.80;63.10;;;;;;5073366;28;20040;-69
2023/05/28 06:23:23;;;;;;;11.75;5.10;;;16.90;63.20;;;;;;5091342;28;20102;-70
2023/05/28 06:25:50;;;;;;;11.35;5.63;;;17.10;63.40;;;;;;5073288;28;20106;-70
2023/05/28 06:28:16;;;;;;;14.23;5.50;;;17.30;63.30;;;;;;5073324;28;20091;-70
2023/05/28 06:30:41;;;;;;;12.35;5.18;;;17.60;62.20;;;;;;5107182;28;20071;-70
2023/05/28 06:33:08;;;;;;;11.63;5.47;;;17.80;61.40;;;;;;5107093;28;20094;-70
2023/05/28 06:35:35;;;;;;;13.15;4.85;;;18.00;60.90;;;;;;5073370;28;20079;-70
2023/05/28 06:38:01;;;;;;;9.20;4.47;;;18.30;59.70;;;;;;5073276;28;20056;-70
2023/05/28 06:40:26;;;;;;;9.38;4.50;;;18.60;59.00;;;;;;5091401;28;20040;-70
2023/05/28 06:42:52;;;;;;;13.45;5.20;;;18.80;57.80;;;;;;5093073;28;20123;-70
2023/05/28 06:45:18;;;;;;;10.27;5.05;;;19.10;57.50;;;;;;5076114;28;20051;-70
2023/05/28 06:47:45;;;;;;;11.30;4.80;;;19.40;57.40;;;;;;5093145;28;20519;-70
2023/05/28 06:50:11;;;;;;;10.68;5.05;;;19.60;56.40;;;;;;5092194;28;20054;-71
2023/05/28 06:52:37;;;;;;;10.07;4.80;;;19.80;55.10;;;;;;5116060;27;20044;-71
2023/05/28 06:55:05;;;;;;;10.52;4.80;;;19.90;54.20;;;;;;5093122;28;20437;-70
2023/05/28 06:57:32;;;;;;;13.50;5.32;;;20.00;53.10;;;;;;5092889;28;20055;-70
2023/05/28 06:59:58;;;;;;;11.90;5.07;;;20.10;53.70;;;;;;5092848;28;20048;-70
2023/05/28 07:02:25;;;;;;;8.35;4.60;;;20.20;54.20;;;;;;5092425;28;20048;-70
2023/05/28 07:04:51;;;;;;;9.57;5.15;;;20.40;53.50;;;;;;5092528;28;20055;-70
2023/05/28 07:07:17;;;;;;;10.43;4.95;;;20.50;53.00;;;;;;5092932;28;20429;-70
2023/05/28 07:09:42;;;;;;;8.60;4.75;;;20.70;52.40;;;;;;5092010;28;20036;-70
2023/05/28 07:12:08;;;;;;;9.63;5.05;;;20.90;51.70;;;;;;5092304;28;20044;-70
2023/05/28 07:14:34;;;;;;;12.02;6.03;;;21.00;50.00;;;;;;5075402;28;20043;-71
2023/05/28 07:17:00;;;;;;;11.07;5.45;;;21.10;49.90;;;;;;5111278;27;20056;-69
2023/05/28 07:19:26;;;;;;;8.80;5.03;;;21.20;48.90;;;;;;5126220;27;20495;-69
2023/05/28 07:21:51;;;;;;;12.48;6.13;;;21.30;47.90;;;;;;5093376;28;20077;-69
2023/05/28 07:24:17;;;;;;;9.02;5.43;;;21.30;48.00;;;;;;5093525;28;20046;-70
2023/05/28 07:26:44;;;;;;;9.00;5.03;;;21.30;47.90;;;;;;5092434;28;20092;-69
2023/05/28 07:29:10;;;;;;;9.30;5.18;;;21.40;47.80;;;;;;5092091;28;20043;-69
2023/05/28 07:31:38;;;;;;;10.15;5.45;;;21.50;47.90;;;;;;5092349;28;20040;-70
2023/05/28 07:34:03;;;;;;;11.20;5.00;;;21.50;47.60;;;;;;5126254;27;20047;-69
2023/05/28 07:36:29;;;;;;;9.23;5.15;;;21.60;47.60;;;;;;5126495;27;20051;-69
2023/05/28 07:38:55;;;;;;;9.93;5.13;;;21.80;47.60;;;;;;5126166;27;20050;-69
2023/05/28 07:41:21;;;;;;;9.82;4.97;;;21.90;47.00;;;;;;5075372;28;20169;-69
2023/05/28 07:43:48;;;;;;;9.05;5.50;;;22.00;47.00;;;;;;5092069;28;20079;-69
2023/05/28 07:46:16;;;;;;;10.48;5.32;;;22.10;46.50;;;;;;5091444;28;20076;-70
2023/05/28 07:48:43;;;;;;;12.63;6.00;;;22.20;45.60;;;;;;5115124;27;20049;-70
2023/05/28 07:51:10;;;;;;;10.52;5.53;;;22.40;45.80;;;;;;5120149;27;20073;-69
2023/05/28 07:53:36;;;;;;;10.23;5.10;;;22.50;45.00;;;;;;5073922;28;20050;-69
2023/05/28 07:56:01;;;;;;;8.32;5.38;;;22.60;45.20;;;;;;5100551;28;20415;-69
2023/05/28 07:58:27;;;;;;;10.60;5.35;;;22.70;44.50;;;;;;5071882;28;20079;-69
2023/05/28 08:00:53;;;;;;;8.02;4.57;;;22.80;44.10;;;;;;5080927;28;20418;-69
2023/05/28 08:03:18;;;;;;;8.93;5.10;;;22.90;43.40;;;;;;5111545;27;20036;-68
2023/05/28 08:05:44;;;;;;;9.65;5.07;;;22.80;43.60;;;;;;5072864;28;20044;-69
2023/05/28 08:08:10;;;;;;;10.40;5.78;;;22.90;44.40;;;;;;5105777;28;20039;-69
2023/05/28 08:10:36;;;;;;;13.23;5.40;;;23.10;44.00;;;;;;5079365;28;20548;-69
2023/05/28 08:13:02;;;;;;;11.70;5.97;;;23.20;43.40;;;;;;5090834;28;20032;-70
2023/05/28 08:15:28;;;;;;;8.07;5.45;;;23.30;42.70;;;;;;5073522;28;20404;-69
2023/05/28 08:17:54;;;;;;;10.05;5.15;;;23.30;42.70;;;;;;5091515;28;20119;-69
2023/05/28 08:20:22;;;;;;;9.80;5.82;;;23.50;42.50;;;;;;5091800;28;20119;-69
2023/05/28 08:22:48;;;;;;;8.52;5.53;;;23.60;42.00;;;;;;5122796;27;20040;-70
2023/05/28 08:25:14;;;;;;;15.25;6.03;;;23.70;41.50;;;;;;5124779;28;20048;-70
2023/05/28 08:27:40;;;;;;;9.32;5.55;;;23.80;41.20;;;;;;5125679;28;20055;-70
2023/05/28 08:30:06;;;;;;;10.30;5.63;;;23.90;41.00;;;;;;5091818;28;20065;-70
2023/05/28 08:32:32;;;;;;;8.52;5.05;;;24.00;40.70;;;;;;5090871;28;20033;-70
2023/05/28 08:34:57;;;;;;;9.75;5.70;;;24.00;40.50;;;;;;5091507;28;20036;-70
2023/05/28 08:37:23;;;;;;;9.80;5.93;;;24.10;40.70;;;;;;5074494;28;20119;-70
2023/05/28 08:39:49;;;;;;;10.15;5.57;;;24.20;39.90;;;;;;5091286;28;20405;-70
2023/05/28 08:42:15;;;;;;;8.80;5.93;;;24.20;40.30;;;;;;5091448;28;20052;-70
2023/05/28 08:44:41;;;;;;;8.52;5.68;;;24.20;39.10;;;;;;5092356;28;20052;-70
2023/05/28 08:47:08;;;;;;;8.35;5.22;;;24.30;40.30;;;;;;5092174;28;20495;-70
2023/05/28 08:49:50;;;;;;;8.73;5.18;;;24.30;40.40;;;;;;5090865;28;20067;-69
2023/05/28 08:52:18;;;;;;;9.65;5.40;;;24.40;39.80;;;;;;5077711;28;20111;-70
2023/05/28 08:54:44;;;;;;;8.60;5.60;;;24.40;40.10;;;;;;5125188;28;20079;-69
2023/05/28 08:57:11;;;;;;;10.75;5.45;;;24.50;39.80;;;;;;5090916;28;20044;-69
2023/05/28 08:59:37;;;;;;;11.10;6.30;;;24.60;40.30;;;;;;5091413;28;20048;-69
2023/05/28 09:02:03;;;;;;;9.30;5.50;;;24.70;40.60;;;;;;5090331;28;20529;-70
2023/05/28 09:04:29;;;;;;;9.70;5.85;;;24.80;40.80;;;;;;5117898;28;20418;-70
2023/05/28 09:06:56;;;;;;;9.65;5.28;;;24.80;40.60;;;;;;5072040;28;20083;-70
2023/05/28 09:09:24;;;;;;;9.73;5.18;;;24.90;40.80;;;;;;5108065;28;20059;-70
2023/05/28 09:11:49;;;;;;;8.20;5.57;;;25.00;40.50;;;;;;5125151;28;20093;-71
2023/05/28 09:14:19;;;;;;;9.65;5.40;;;25.10;40.80;;;;;;5119277;28;20044;-70
2023/05/28 09:16:45;;;;;;;9.38;5.32;;;25.20;41.00;;;;;;5090181;28;20047;-70
2023/05/28 09:19:15;;;;;;;12.73;6.05;;;25.30;41.00;;;;;;5090936;28;20055;-70
2023/05/28 09:21:57;;;;;;;14.32;6.82;;;25.40;40.60;;;;;;5090677;28;20047;-70
2023/05/28 09:24:27;;;;;;;11.32;5.85;;;25.40;40.40;;;;;;5088298;28;20032;-70
2023/05/28 09:26:57;;;;;;;7.95;5.47;;;25.30;40.40;;;;;;5114745;28;20041;-70
2023/05/28 09:29:23;;;;;;;9.05;5.40;;;25.30;40.10;;;;;;5070672;28;20607;-70
2023/05/28 09:31:56;;;;;;;7.45;4.95;;;25.40;40.60;;;;;;5084625;28;20040;-70
2023/05/28 09:34:31;;;;;;;8.15;5.25;;;25.50;40.30;;;;;;5094196;28;20445;-70
2023/05/28 09:37:04;;;;;;;9.55;5.43;;;25.50;39.80;;;;;;5113580;27;20051;-71
2023/05/28 09:39:31;;;;;;;8.57;5.45;;;25.60;39.60;;;;;;5077003;28;20043;-70
2023/05/28 09:42:05;;;;;;;8.05;5.10;;;25.60;40.00;;;;;;5093292;28;20475;-70
2023/05/28 09:44:32;;;;;;;10.32;5.10;;;25.70;38.90;;;;;;5093235;28;20063;-70
2023/05/28 09:46:59;;;;;;;7.82;4.70;;;25.70;38.40;;;;;;5095464;28;20052;-70
2023/05/28 09:49:28;;;;;;;10.23;5.97;;;25.80;38.50;;;;;;5094209;28;20075;-70
2023/05/28 09:51:57;;;;;;;7.50;4.85;;;25.80;37.30;;;;;;5094113;28;20109;-69
2023/05/28 09:54:28;;;;;;;11.25;5.28;;;25.80;37.70;;;;;;5093545;28;20052;-69
2023/05/28 09:56:57;;;;;;;8.00;4.88;;;25.80;36.80;;;;;;5094089;28;20093;-69
2023/05/28 09:59:25;;;;;;;7.68;4.88;;;25.80;36.20;;;;;;5120470;27;20036;-69
2023/05/28 10:01:59;;;;;;;8.55;5.20;;;25.80;35.90;;;;;;5074154;28;20373;-69
2023/05/28 10:04:34;;;;;;;9.73;4.97;;;25.80;35.90;;;;;;5089707;28;20074;-69
2023/05/28 10:07:00;;;;;;;7.57;4.30;;;25.90;35.10;;;;;;5073869;28;20426;-70
2023/05/28 10:09:27;;;;;;;9.55;4.90;;;25.80;34.50;;;;;;5107542;28;20083;-70
2023/05/28 10:12:05;;;;;;;7.80;4.65;;;25.70;34.20;;;;;;5090877;28;20369;-70
2023/05/28 10:14:32;;;;;;;7.80;4.63;;;25.60;34.30;;;;;;5089216;28;20050;-70
2023/05/28 10:16:58;;;;;;;7.82;4.90;;;25.60;34.50;;;;;;5093720;28;20445;-69
2023/05/28 10:19:25;;;;;;;9.65;5.05;;;25.70;34.60;;;;;;5077045;28;20048;-72
2023/05/28 10:21:51;;;;;;;10.85;5.63;;;25.70;34.10;;;;;;5127832;27;20115;-72
2023/05/28 10:24:17;;;;;;;8.25;4.78;;;25.70;33.70;;;;;;5113590;27;20115;-71
2023/05/28 10:26:43;;;;;;;7.18;4.72;;;25.60;33.90;;;;;;5076881;28;20094;-71
2023/05/28 10:29:09;;;;;;;8.65;4.72;;;25.50;34.40;;;;;;5116430;27;20041;-71
2023/05/28 10:31:35;;;;;;;9.13;4.63;;;25.60;34.60;;;;;;5071241;28;20132;-66
2023/05/28 10:34:00;;;;;;;8.68;4.85;;;25.50;34.40;;;;;;5092812;28;20467;-66
2023/05/28 10:36:26;;;;;;;8.77;5.13;;;25.70;34.50;;;;;;5092910;28;20094;-64
2023/05/28 10:38:52;;;;;;;7.68;4.43;;;25.70;34.20;;;;;;5119287;27;20595;-64
2023/05/28 10:41:19;;;;;;;7.57;4.93;;;25.70;34.10;;;;;;5072851;28;20044;-65
2023/05/28 10:43:47;;;;;;;6.55;4.45;;;25.80;34.20;;;;;;5064260;28;20097;-65
2023/05/28 10:46:19;;;;;;;9.73;5.25;;;25.90;33.90;;;;;;5092897;28;20407;-67
2023/05/28 10:49:04;;;;;;;7.57;4.70;;;25.90;33.30;;;;;;5088423;28;20104;-64
2023/05/28 10:51:56;;;;;;;8.52;4.65;;;26.00;33.70;;;;;;5086649;28;20101;-64
2023/05/28 10:54:37;;;;;;;6.55;4.30;;;26.00;33.90;;;;;;5120039;27;21374;-65
2023/05/28 10:57:17;;;;;;;7.90;4.65;;;26.00;34.20;;;;;;5120742;27;20048;-64
2023/05/28 10:59:50;;;;;;;6.60;3.97;;;26.10;34.10;;;;;;5112351;27;20044;-65
2023/05/28 11:02:33;;;;;;;6.63;4.13;;;26.10;33.70;;;;;;5089501;28;20110;-65
2023/05/28 11:05:01;;;;;;;8.45;5.43;;;26.10;34.00;;;;;;5095252;28;20046;-65
2023/05/28 11:07:35;;;;;;;5.90;4.22;;;26.20;34.00;;;;;;5107401;27;20177;-66
2023/05/28 11:10:05;;;;;;;7.72;4.60;;;26.30;34.10;;;;;;5079769;28;20456;-67
2023/05/28 11:12:34;;;;;;;7.13;4.93;;;26.30;33.50;;;;;;5124358;27;20542;-67
2023/05/28 11:15:00;;;;;;;6.10;3.65;;;26.30;33.20;;;;;;5106954;27;20040;-65
2023/05/28 11:17:25;;;;;;;7.00;4.75;;;26.30;33.60;;;;;;5092461;28;20063;-68
2023/05/28 11:19:53;;;;;;;8.80;4.80;;;26.30;32.40;;;;;;5093700;28;20119;-68
2023/05/28 11:22:20;;;;;;;7.22;4.80;;;26.20;32.50;;;;;;5126009;27;20032;-69
2023/05/28 11:24:58;;;;;;;8.07;4.18;;;26.20;32.70;;;;;;5125801;27;20040;-68
2023/05/28 11:27:27;;;;;;;9.32;5.43;;;26.20;32.10;;;;;;5125246;27;20097;-68
2023/05/28 11:30:02;;;;;;;8.50;4.40;;;26.10;31.90;;;;;;5091590;28;20376;-69
2023/05/28 11:32:32;;;;;;;6.55;4.95;;;26.10;31.80;;;;;;5091479;28;20081;-69
2023/05/28 11:34:58;;;;;;;7.78;5.30;;;26.10;31.20;;;;;;5091353;28;20055;-69
2023/05/28 11:37:28;;;;;;;6.15;4.47;;;26.10;31.40;;;;;;5090475;28;20032;-68
2023/05/28 11:39:56;;;;;;;7.55;5.50;;;26.10;30.00;;;;;;5107831;27;20127;-68
2023/05/28 11:42:23;;;;;;;7.03;5.18;;;25.90;30.50;;;;;;5081243;28;20044;-68
2023/05/28 11:44:50;;;;;;;6.93;5.32;;;25.80;30.60;;;;;;5090451;28;20044;-68
2023/05/28 11:47:17;;;;;;;7.72;4.95;;;25.80;30.40;;;;;;5090929;28;20160;-68
2023/05/28 11:49:44;;;;;;;7.45;6.47;;;25.70;30.40;;;;;;5076893;28;20036;-65
2023/05/28 11:52:22;;;;;;;6.45;5.45;;;25.80;31.20;;;;;;5082005;28;20112;-65
2023/05/28 11:55:01;;;;;;;7.68;5.95;;;25.80;30.90;;;;;;5082760;28;20368;-65
2023/05/28 11:57:33;;;;;;;8.48;6.22;;;25.70;30.80;;;;;;5113166;27;21719;-66
2023/05/28 12:00:00;;;;;;;8.63;5.38;;;25.70;30.90;;;;;;5096836;28;20067;-65
2023/05/28 12:02:26;;;;;;;6.38;4.70;;;25.70;30.60;;;;;;5116053;27;20051;-65
2023/05/28 12:05:01;;;;;;;5.90;4.32;;;25.70;30.00;;;;;;5081067;28;20040;-64
2023/05/28 12:07:32;;;;;;;6.68;5.00;;;25.70;29.80;;;;;;5099093;28;20105;-65
2023/05/28 12:10:08;;;;;;;5.68;5.00;;;25.70;29.40;;;;;;5083993;28;20043;-65
2023/05/28 12:12:39;;;;;;;7.97;5.97;;;25.70;29.80;;;;;;5083271;28;20494;-65
2023/05/28 12:15:06;;;;;;;7.13;5.38;;;25.70;29.40;;;;;;5082413;28;20047;-65
2023/05/28 12:17:40;;;;;;;6.00;5.00;;;25.60;29.20;;;;;;5081904;28;20119;-65
2023/05/28 12:20:07;;;;;;;;;;;25.50;29.20;;;;;;5115315;28;20052;-65
2023/05/28 12:22:33;;;;;;;7.38;4.50;;;25.80;29.20;;;;;;5081090;28;19920;-66
2023/05/28 12:24:58;;;;;;;6.50;4.63;;;25.40;29.30;;;;;;5116204;28;20059;-65
2023/05/28 12:27:24;;;;;;;5.60;4.07;;;25.40;29.80;;;;;;5066458;28;20073;-66
2023/05/28 12:29:50;;;;;;;6.00;3.40;;;25.40;29.30;;;;;;5112790;28;20040;-66
2023/05/28 12:32:16;;;;;;;5.20;3.75;;;25.40;28.80;;;;;;5117459;28;20493;-65
2023/05/28 12:34:41;;;;;;;6.20;3.63;;;25.40;28.80;;;;;;5082174;28;20048;-65
2023/05/28 12:37:08;;;;;;;6.60;3.92;;;25.40;28.80;;;;;;5078986;28;20040;-65
2023/05/28 12:39:35;;;;;;;5.35;3.50;;;25.40;29.50;;;;;;5082380;28;20040;-66